createdAt,value
2023-01-19T00:00:04.140Z,5.36
2023-01-19T00:00:28.207Z,5.36
2023-01-19T00:00:50.076Z,5.36
2023-01-19T00:01:11.832Z,5.35
2023-01-19T00:01:33.516Z,5.34
2023-01-19T00:01:55.350Z,5.33
2023-01-19T00:02:17.088Z,5.33
2023-01-19T00:02:38.799Z,5.31
2023-01-19T00:03:00.400Z,5.31
2023-01-19T00:03:22.263Z,5.30
2023-01-19T00:03:44.933Z,5.29
2023-01-19T00:04:06.633Z,5.29
2023-01-19T00:04:28.710Z,5.28
2023-01-19T00:04:50.310Z,5.27
2023-01-19T00:05:12.329Z,5.26
2023-01-19T00:05:35.495Z,5.25
2023-01-19T00:05:57.344Z,5.25
2023-01-19T00:06:19.550Z,5.24
2023-01-19T00:06:41.410Z,5.23
2023-01-19T00:07:04.787Z,5.22
2023-01-19T00:07:26.564Z,5.21
2023-01-19T00:07:48.353Z,5.20
2023-01-19T00:08:16.165Z,5.20
2023-01-19T00:08:38.511Z,5.20
2023-01-19T00:09:00.735Z,5.20
2023-01-19T00:09:22.656Z,5.21
2023-01-19T00:09:44.437Z,5.22
2023-01-19T00:10:06.727Z,5.23
2023-01-19T00:10:28.936Z,5.24
2023-01-19T00:10:50.816Z,5.26
2023-01-19T00:11:12.696Z,5.27
2023-01-19T00:11:34.486Z,5.28
2023-01-19T00:11:56.262Z,5.29
2023-01-19T00:12:17.841Z,5.30
2023-01-19T00:12:39.477Z,5.31
2023-01-19T00:13:01.653Z,5.31
2023-01-19T00:13:24.020Z,5.32
2023-01-19T00:13:49.276Z,5.32
2023-01-19T00:14:11.617Z,5.32
2023-01-19T00:14:33.971Z,5.32
2023-01-19T00:14:55.860Z,5.31
2023-01-19T00:15:18.061Z,5.31
2023-01-19T00:15:39.718Z,5.30
2023-01-19T00:16:01.317Z,5.29
2023-01-19T00:16:23.221Z,5.29
2023-01-19T00:16:45.189Z,5.28
2023-01-19T00:17:07.180Z,5.28
2023-01-19T00:17:28.970Z,5.27
2023-01-19T00:17:50.460Z,5.26
2023-01-19T00:18:12.124Z,5.25
2023-01-19T00:18:33.774Z,5.24
2023-01-19T00:18:55.410Z,5.24
2023-01-19T00:19:17.067Z,5.23
2023-01-19T00:19:38.646Z,5.23
2023-01-19T00:20:00.345Z,5.22
2023-01-19T00:20:22.418Z,5.21
2023-01-19T00:20:47.271Z,5.20
2023-01-19T00:21:08.953Z,5.19
2023-01-19T00:21:32.784Z,5.19
2023-01-19T00:21:54.467Z,5.19
2023-01-19T00:22:16.157Z,5.19
2023-01-19T00:22:38.035Z,5.20
2023-01-19T00:23:01.464Z,5.20
2023-01-19T00:23:23.961Z,5.21
2023-01-19T00:23:50.476Z,5.23
2023-01-19T00:24:13.357Z,5.24
2023-01-19T00:24:35.087Z,5.25
2023-01-19T00:24:57.037Z,5.26
2023-01-19T00:25:18.816Z,5.27
2023-01-19T00:25:43.767Z,5.28
2023-01-19T00:26:05.614Z,5.29
2023-01-19T00:26:27.539Z,5.28
2023-01-19T00:26:49.230Z,5.28
2023-01-19T00:27:10.904Z,5.27
2023-01-19T00:27:34.427Z,5.28
2023-01-19T00:27:57.139Z,5.27
2023-01-19T00:28:19.888Z,5.25
2023-01-19T00:28:45.407Z,5.25
2023-01-19T00:29:11.996Z,5.24
2023-01-19T00:29:33.884Z,5.23
2023-01-19T00:29:55.511Z,5.22
2023-01-19T00:30:17.363Z,5.21
2023-01-19T00:30:39.850Z,5.20
2023-01-19T00:31:01.944Z,5.19
2023-01-19T00:31:23.591Z,5.18
2023-01-19T00:31:45.408Z,5.17
2023-01-19T00:32:07.218Z,5.17
2023-01-19T00:32:29.183Z,5.16
2023-01-19T00:32:50.970Z,5.15
2023-01-19T00:33:13.907Z,5.14
2023-01-19T00:33:35.764Z,5.14
2023-01-19T00:33:57.444Z,5.14
2023-01-19T00:34:19.127Z,5.14
2023-01-19T00:34:41.967Z,5.15
2023-01-19T00:35:04.355Z,5.16
2023-01-19T00:35:25.959Z,5.17
2023-01-19T00:35:50.868Z,5.18
2023-01-19T00:36:12.859Z,5.20
2023-01-19T00:36:34.644Z,5.21
2023-01-19T00:36:56.153Z,5.23
2023-01-19T00:37:17.799Z,5.24
2023-01-19T00:37:39.798Z,5.25
2023-01-19T00:38:01.784Z,5.25
2023-01-19T00:38:23.666Z,5.26
2023-01-19T00:38:45.566Z,5.26
2023-01-19T00:39:07.309Z,5.25
2023-01-19T00:39:29.326Z,5.26
2023-01-19T00:39:50.866Z,5.26
2023-01-19T00:40:13.516Z,5.25
2023-01-19T00:40:35.195Z,5.24
2023-01-19T00:40:57.300Z,5.24
2023-01-19T00:41:39.019Z,5.23
2023-01-19T00:42:19.612Z,5.22
2023-01-19T00:42:43.750Z,5.20
2023-01-19T00:43:05.322Z,5.20
2023-01-19T00:43:29.601Z,5.19
2023-01-19T00:43:52.583Z,5.18
2023-01-19T00:44:15.012Z,5.18
2023-01-19T00:44:36.867Z,5.17
2023-01-19T00:44:59.165Z,5.16
2023-01-19T00:45:21.692Z,5.16
2023-01-19T00:45:44.342Z,5.15
2023-01-19T00:46:06.214Z,5.15
2023-01-19T00:46:28.243Z,5.16
2023-01-19T00:46:49.975Z,5.16
2023-01-19T00:47:12.029Z,5.17
2023-01-19T00:47:33.603Z,5.17
2023-01-19T00:47:58.358Z,5.19
2023-01-19T00:48:19.979Z,5.20
2023-01-19T00:48:41.617Z,5.22
2023-01-19T00:49:03.290Z,5.23
2023-01-19T00:49:25.080Z,5.25
2023-01-19T00:49:46.788Z,5.26
2023-01-19T00:50:11.310Z,5.27
2023-01-19T00:50:33.191Z,5.27
2023-01-19T00:50:54.770Z,5.28
2023-01-19T00:51:18.653Z,5.28
2023-01-19T00:51:44.108Z,5.28
2023-01-19T00:52:05.746Z,5.27
2023-01-19T00:52:27.680Z,5.26
2023-01-19T00:52:49.345Z,5.26
2023-01-19T00:53:11.306Z,5.25
2023-01-19T00:53:33.004Z,5.24
2023-01-19T00:53:54.769Z,5.24
2023-01-19T00:54:17.478Z,5.23
2023-01-19T00:54:39.169Z,5.23
2023-01-19T00:55:00.844Z,5.22
2023-01-19T00:55:22.528Z,5.21
2023-01-19T00:55:44.108Z,5.20
2023-01-19T00:56:06.092Z,5.20
2023-01-19T00:56:30.846Z,5.19
2023-01-19T00:56:53.035Z,5.18
2023-01-19T00:57:14.923Z,5.17
2023-01-19T00:57:36.828Z,5.17
2023-01-19T00:57:58.599Z,5.16
2023-01-19T00:58:22.055Z,5.16
2023-01-19T00:58:45.356Z,5.17
2023-01-19T00:59:06.927Z,5.17
2023-01-19T00:59:28.629Z,5.19
2023-01-19T00:59:50.491Z,5.19
2023-01-19T01:00:13.602Z,5.21
2023-01-19T01:00:35.687Z,5.23
2023-01-19T01:01:02.804Z,5.24
2023-01-19T01:01:45.748Z,5.26
2023-01-19T01:02:07.075Z,5.28
2023-01-19T01:02:29.664Z,5.28
2023-01-19T01:02:52.077Z,5.28
2023-01-19T01:03:14.365Z,5.29
2023-01-19T01:03:36.088Z,5.29
2023-01-19T01:03:57.785Z,5.29
2023-01-19T01:04:19.567Z,5.28
2023-01-19T01:04:41.252Z,5.28
2023-01-19T01:05:05.490Z,5.28
2023-01-19T01:05:27.494Z,5.26
2023-01-19T01:05:51.644Z,5.26
2023-01-19T01:06:13.297Z,5.25
2023-01-19T01:06:35.394Z,5.25
2023-01-19T01:06:57.112Z,5.24
2023-01-19T01:07:18.684Z,5.23
2023-01-19T01:07:40.695Z,5.23
2023-01-19T01:08:02.472Z,5.22
2023-01-19T01:08:24.415Z,5.22
2023-01-19T01:08:46.094Z,5.21
2023-01-19T01:09:11.355Z,5.19
2023-01-19T01:09:33.175Z,5.19
2023-01-19T01:09:56.255Z,5.18
2023-01-19T01:10:19.166Z,5.18
2023-01-19T01:10:40.851Z,5.17
2023-01-19T01:11:02.735Z,5.17
2023-01-19T01:11:24.629Z,5.17
2023-01-19T01:11:46.405Z,5.18
2023-01-19T01:12:08.199Z,5.19
2023-01-19T01:12:30.630Z,5.20
2023-01-19T01:13:19.923Z,5.21
2023-01-19T01:13:34.434Z,5.23
2023-01-19T01:13:56.295Z,5.25
2023-01-19T01:14:18.896Z,5.26
2023-01-19T01:14:40.904Z,5.28
2023-01-19T01:15:03.384Z,5.28
2023-01-19T01:15:25.991Z,5.29
2023-01-19T01:15:51.458Z,5.30
2023-01-19T01:16:16.542Z,5.29
2023-01-19T01:16:38.543Z,5.30
2023-01-19T01:17:00.399Z,5.29
2023-01-19T01:17:24.322Z,5.28
2023-01-19T01:17:46.694Z,5.28
2023-01-19T01:18:08.605Z,5.27
2023-01-19T01:18:30.390Z,5.26
2023-01-19T01:18:52.078Z,5.25
2023-01-19T01:19:13.752Z,5.25
2023-01-19T01:19:35.650Z,5.24
2023-01-19T01:19:57.459Z,5.23
2023-01-19T01:20:23.100Z,5.23
2023-01-19T01:20:44.676Z,5.22
2023-01-19T01:21:06.664Z,5.21
2023-01-19T01:21:28.654Z,5.21
2023-01-19T01:21:50.744Z,5.20
2023-01-19T01:22:13.246Z,5.19
2023-01-19T01:22:34.926Z,5.18
2023-01-19T01:22:56.590Z,5.18
2023-01-19T01:23:22.179Z,5.18
2023-01-19T01:23:43.861Z,5.19
2023-01-19T01:24:05.782Z,5.19
2023-01-19T01:24:27.485Z,5.20
2023-01-19T01:24:49.092Z,5.21
2023-01-19T01:25:14.279Z,5.23
2023-01-19T01:25:37.958Z,5.24
2023-01-19T01:25:59.681Z,5.26
2023-01-19T01:26:21.468Z,5.27
2023-01-19T01:26:43.147Z,5.28
2023-01-19T01:27:04.934Z,5.29
2023-01-19T01:27:26.617Z,5.30
2023-01-19T01:27:48.297Z,5.30
2023-01-19T01:28:10.291Z,5.30
2023-01-19T01:28:32.045Z,5.30
2023-01-19T01:28:53.855Z,5.30
2023-01-19T01:29:17.247Z,5.30
2023-01-19T01:29:48.064Z,5.29
2023-01-19T01:30:10.662Z,5.29
2023-01-19T01:30:32.549Z,5.27
2023-01-19T01:30:54.849Z,5.27
2023-01-19T01:31:16.740Z,5.26
2023-01-19T01:31:38.855Z,5.26
2023-01-19T01:32:01.075Z,5.25
2023-01-19T01:32:22.735Z,5.24
2023-01-19T01:32:45.018Z,5.24
2023-01-19T01:33:07.091Z,5.23
2023-01-19T01:33:40.976Z,5.22
2023-01-19T01:34:03.651Z,5.21
2023-01-19T01:34:25.328Z,5.21
2023-01-19T01:34:46.939Z,5.21
2023-01-19T01:35:08.894Z,5.20
2023-01-19T01:35:31.913Z,5.19
2023-01-19T01:35:53.594Z,5.20
2023-01-19T01:36:15.372Z,5.20
2023-01-19T01:36:37.266Z,5.21
2023-01-19T01:36:59.044Z,5.21
2023-01-19T01:37:20.728Z,5.22
2023-01-19T01:37:42.838Z,5.24
2023-01-19T01:38:04.522Z,5.25
2023-01-19T01:38:26.285Z,5.27
2023-01-19T01:38:48.071Z,5.28
2023-01-19T01:39:09.651Z,5.29
2023-01-19T01:39:31.779Z,5.29
2023-01-19T01:39:53.527Z,5.29
2023-01-19T01:40:16.143Z,5.30
2023-01-19T01:40:39.096Z,5.30
2023-01-19T01:41:00.827Z,5.29
2023-01-19T01:41:25.366Z,5.29
2023-01-19T01:41:47.604Z,5.29
2023-01-19T01:42:13.844Z,5.28
2023-01-19T01:42:35.738Z,5.28
2023-01-19T01:42:58.629Z,5.28
2023-01-19T01:43:21.450Z,5.26
2023-01-19T01:43:52.894Z,5.25
2023-01-19T01:44:34.269Z,5.25
2023-01-19T01:44:56.618Z,5.24
2023-01-19T01:45:21.324Z,5.22
2023-01-19T01:45:43.350Z,5.21
2023-01-19T01:46:05.658Z,5.20
2023-01-19T01:46:29.224Z,5.19
2023-01-19T01:46:52.751Z,5.19
2023-01-19T01:47:19.536Z,5.18
2023-01-19T01:47:41.123Z,5.19
2023-01-19T01:48:14.927Z,5.20
2023-01-19T01:48:36.516Z,5.21
2023-01-19T01:49:03.559Z,5.23
2023-01-19T01:49:25.546Z,5.24
2023-01-19T01:49:47.230Z,5.25
2023-01-19T01:50:25.215Z,5.26
2023-01-19T01:51:09.672Z,5.28
2023-01-19T01:51:33.188Z,5.28
2023-01-19T01:51:55.178Z,5.28
2023-01-19T01:52:16.958Z,5.28
2023-01-19T01:52:40.279Z,5.27
2023-01-19T01:53:06.473Z,5.27
2023-01-19T01:53:33.971Z,5.26
2023-01-19T01:54:16.063Z,5.26
2023-01-19T01:54:37.895Z,5.24
2023-01-19T01:54:59.784Z,5.23
2023-01-19T01:55:21.611Z,5.22
2023-01-19T01:55:44.985Z,5.21
2023-01-19T01:56:07.395Z,5.21
2023-01-19T01:56:33.872Z,5.20
2023-01-19T01:56:57.193Z,5.19
2023-01-19T01:57:18.806Z,5.18
2023-01-19T01:57:41.408Z,5.18
2023-01-19T01:58:03.770Z,5.17
2023-01-19T01:58:25.491Z,5.17
2023-01-19T01:58:47.572Z,5.17
2023-01-19T01:59:11.377Z,5.16
2023-01-19T01:59:38.477Z,5.17
2023-01-19T02:00:00.142Z,5.18
2023-01-19T02:00:23.788Z,5.20
2023-01-19T02:01:11.166Z,5.21
2023-01-19T02:01:52.221Z,5.23
2023-01-19T02:02:34.498Z,5.25
2023-01-19T02:02:56.125Z,5.26
2023-01-19T02:03:17.824Z,5.27
2023-01-19T02:03:39.788Z,5.26
2023-01-19T02:04:01.426Z,5.26
2023-01-19T02:04:23.714Z,5.26
2023-01-19T02:04:56.070Z,5.25
2023-01-19T02:05:27.848Z,5.23
2023-01-19T02:05:49.618Z,5.22
2023-01-19T02:06:11.255Z,5.22
2023-01-19T02:06:33.331Z,5.20
2023-01-19T02:07:13.715Z,5.19
2023-01-19T02:07:56.351Z,5.17
2023-01-19T02:08:38.394Z,5.16
2023-01-19T02:09:23.283Z,5.15
2023-01-19T02:10:03.580Z,5.13
2023-01-19T02:10:44.797Z,5.12
2023-01-19T02:11:25.071Z,5.12
2023-01-19T02:12:05.699Z,5.14
2023-01-19T02:12:46.207Z,5.15
2023-01-19T02:13:18.108Z,5.17
2023-01-19T02:13:43.319Z,5.19
2023-01-19T02:14:06.073Z,5.20
2023-01-19T02:14:28.472Z,5.21
2023-01-19T02:14:50.159Z,5.21
2023-01-19T02:15:18.407Z,5.20
2023-01-19T02:15:40.165Z,5.20
2023-01-19T02:16:03.514Z,5.20
2023-01-19T02:16:25.693Z,5.19
2023-01-19T02:16:47.511Z,5.18
2023-01-19T02:17:09.284Z,5.17
2023-01-19T02:17:31.645Z,5.17
2023-01-19T02:17:53.571Z,5.15
2023-01-19T02:18:15.241Z,5.14
2023-01-19T02:18:36.896Z,5.14
2023-01-19T02:18:59.947Z,5.13
2023-01-19T02:19:23.454Z,5.12
2023-01-19T02:19:46.032Z,5.10
2023-01-19T02:20:10.112Z,5.10
2023-01-19T02:20:33.423Z,5.08
2023-01-19T02:21:15.420Z,5.08
2023-01-19T02:21:42.525Z,5.06
2023-01-19T02:22:10.247Z,5.05
2023-01-19T02:22:38.058Z,5.04
2023-01-19T02:23:01.288Z,5.03
2023-01-19T02:23:59.982Z,5.03
2023-01-19T02:24:21.986Z,5.04
2023-01-19T02:24:43.753Z,5.06
2023-01-19T02:25:05.745Z,5.07
2023-01-19T02:25:27.531Z,5.08
2023-01-19T02:25:49.311Z,5.09
2023-01-19T02:26:15.537Z,5.10
2023-01-19T02:26:41.882Z,5.12
2023-01-19T02:27:04.079Z,5.13
2023-01-19T02:27:25.858Z,5.14
2023-01-19T02:27:48.032Z,5.15
2023-01-19T02:28:09.901Z,5.15
2023-01-19T02:28:33.464Z,5.15
2023-01-19T02:28:56.909Z,5.15
2023-01-19T02:29:19.494Z,5.15
2023-01-19T02:29:41.170Z,5.14
2023-01-19T02:30:03.306Z,5.13
2023-01-19T02:30:25.141Z,5.13
2023-01-19T02:30:47.233Z,5.12
2023-01-19T02:31:10.150Z,5.11
2023-01-19T02:31:31.930Z,5.10
2023-01-19T02:31:55.148Z,5.09
2023-01-19T02:32:17.141Z,5.09
2023-01-19T02:32:38.921Z,5.08
2023-01-19T02:33:00.981Z,5.07
2023-01-19T02:33:23.171Z,5.06
2023-01-19T02:33:44.711Z,5.06
2023-01-19T02:34:09.994Z,5.05
2023-01-19T02:34:31.832Z,5.05
2023-01-19T02:34:53.924Z,5.04
2023-01-19T02:35:16.769Z,5.04
2023-01-19T02:35:40.561Z,5.03
2023-01-19T02:36:02.756Z,5.03
2023-01-19T02:36:26.686Z,5.04
2023-01-19T02:36:58.493Z,5.05
2023-01-19T02:37:20.110Z,5.07
2023-01-19T02:37:42.044Z,5.08
2023-01-19T02:38:03.745Z,5.09
2023-01-19T02:38:26.349Z,5.11
2023-01-19T02:38:48.109Z,5.13
2023-01-19T02:39:09.747Z,5.13
2023-01-19T02:39:34.581Z,5.14
2023-01-19T02:39:57.310Z,5.14
2023-01-19T02:40:19.599Z,5.14
2023-01-19T02:40:41.248Z,5.15
2023-01-19T02:41:03.143Z,5.14
2023-01-19T02:41:26.044Z,5.13
2023-01-19T02:41:49.465Z,5.13
2023-01-19T02:42:12.684Z,5.12
2023-01-19T02:42:35.490Z,5.11
2023-01-19T02:42:57.581Z,5.10
2023-01-19T02:43:19.113Z,5.09
2023-01-19T02:43:41.381Z,5.09
2023-01-19T02:44:02.933Z,5.08
2023-01-19T02:44:24.655Z,5.07
2023-01-19T02:44:47.768Z,5.06
2023-01-19T02:45:12.187Z,5.06
2023-01-19T02:45:34.165Z,5.04
2023-01-19T02:45:56.629Z,5.03
2023-01-19T02:46:18.269Z,5.02
2023-01-19T02:46:40.480Z,5.02
2023-01-19T02:47:03.039Z,5.01
2023-01-19T02:47:24.929Z,5.02
2023-01-19T02:47:48.687Z,5.02
2023-01-19T02:48:10.441Z,5.03
2023-01-19T02:48:32.122Z,5.05
2023-01-19T02:48:57.823Z,5.07
2023-01-19T02:49:26.866Z,5.08
2023-01-19T02:49:57.734Z,5.10
2023-01-19T02:50:32.100Z,5.11
2023-01-19T02:50:56.771Z,5.13
2023-01-19T02:51:22.644Z,5.14
2023-01-19T02:51:44.374Z,5.14
2023-01-19T02:52:10.579Z,5.14
2023-01-19T02:52:32.190Z,5.15
2023-01-19T02:52:54.046Z,5.14
2023-01-19T02:53:34.443Z,5.14
2023-01-19T02:54:08.097Z,5.13
2023-01-19T02:54:32.223Z,5.12
2023-01-19T02:55:12.832Z,5.11
2023-01-19T02:55:34.459Z,5.10
2023-01-19T02:55:58.825Z,5.09
2023-01-19T02:56:39.806Z,5.09
2023-01-19T02:57:38.678Z,5.08
2023-01-19T02:58:03.362Z,5.07
2023-01-19T02:58:28.872Z,5.08
2023-01-19T02:59:26.676Z,5.08
2023-01-19T02:59:52.356Z,5.12
2023-01-19T03:00:29.070Z,5.13
2023-01-19T03:00:52.016Z,5.16
2023-01-19T03:01:32.419Z,5.18
2023-01-19T03:03:00.451Z,5.26
2023-01-19T03:03:33.058Z,5.22
2023-01-19T03:03:56.271Z,5.22
2023-01-19T03:04:23.786Z,5.22
2023-01-19T03:05:00.309Z,5.22
2023-01-19T03:05:40.593Z,5.21
2023-01-19T03:06:02.587Z,5.20
2023-01-19T03:06:27.232Z,5.20
2023-01-19T03:07:12.159Z,5.20
2023-01-19T03:07:52.821Z,5.19
2023-01-19T03:08:17.795Z,5.19
2023-01-19T03:09:02.380Z,5.18
2023-01-19T03:09:41.668Z,5.17
2023-01-19T03:10:22.375Z,5.17
2023-01-19T03:10:46.911Z,5.18
2023-01-19T03:11:09.506Z,5.19
2023-01-19T03:11:33.748Z,5.21
2023-01-19T03:12:00.558Z,5.21
2023-01-19T03:12:26.978Z,5.23
2023-01-19T03:12:50.762Z,5.25
2023-01-19T03:13:31.362Z,5.26
2023-01-19T03:13:54.226Z,5.28
2023-01-19T03:14:18.317Z,5.29
2023-01-19T03:14:41.115Z,5.29
2023-01-19T03:15:05.351Z,5.29
2023-01-19T03:15:29.122Z,5.29
2023-01-19T03:15:52.974Z,5.29
2023-01-19T03:16:22.894Z,5.29
2023-01-19T03:16:48.838Z,5.28
2023-01-19T03:17:10.843Z,5.28
2023-01-19T03:17:32.558Z,5.27
2023-01-19T03:17:54.417Z,5.27
2023-01-19T03:18:17.241Z,5.27
2023-01-19T03:18:39.110Z,5.26
2023-01-19T03:19:11.870Z,5.26
2023-01-19T03:19:34.747Z,5.25
2023-01-19T03:19:56.646Z,5.24
2023-01-19T03:20:20.050Z,5.23
2023-01-19T03:20:42.259Z,5.23
2023-01-19T03:21:05.242Z,5.22
2023-01-19T03:21:27.352Z,5.21
2023-01-19T03:21:53.242Z,5.21
2023-01-19T03:22:19.613Z,5.20
2023-01-19T03:22:41.611Z,5.19
2023-01-19T03:23:04.575Z,5.19
2023-01-19T03:23:27.113Z,5.19
2023-01-19T03:23:48.911Z,5.20
2023-01-19T03:24:11.421Z,5.20
2023-01-19T03:24:36.299Z,5.21
2023-01-19T03:24:59.976Z,5.23
2023-01-19T03:25:21.657Z,5.24
2023-01-19T03:25:44.266Z,5.25
2023-01-19T03:26:06.056Z,5.27
2023-01-19T03:26:29.366Z,5.28
2023-01-19T03:26:57.934Z,5.29
2023-01-19T03:27:21.321Z,5.30
2023-01-19T03:27:43.103Z,5.31
2023-01-19T03:28:05.311Z,5.31
2023-01-19T03:28:27.290Z,5.31
2023-01-19T03:28:49.070Z,5.31
2023-01-19T03:29:11.122Z,5.31
2023-01-19T03:29:35.097Z,5.30
2023-01-19T03:30:06.145Z,5.29
2023-01-19T03:30:28.993Z,5.28
2023-01-19T03:30:52.642Z,5.28
2023-01-19T03:31:15.905Z,5.27
2023-01-19T03:31:37.655Z,5.26
2023-01-19T03:32:00.119Z,5.25
2023-01-19T03:32:22.932Z,5.24
2023-01-19T03:32:48.604Z,5.23
2023-01-19T03:33:15.106Z,5.22
2023-01-19T03:33:37.501Z,5.22
2023-01-19T03:34:01.016Z,5.22
2023-01-19T03:34:24.119Z,5.21
2023-01-19T03:34:45.814Z,5.22
2023-01-19T03:35:09.342Z,5.24
2023-01-19T03:35:32.038Z,5.25
2023-01-19T03:35:54.857Z,5.26
2023-01-19T03:36:34.624Z,5.27
2023-01-19T03:36:57.951Z,5.28
2023-01-19T03:37:19.658Z,5.30
2023-01-19T03:37:42.654Z,5.31
2023-01-19T03:38:06.092Z,5.32
2023-01-19T03:38:27.844Z,5.32
2023-01-19T03:38:49.737Z,5.33
2023-01-19T03:39:11.515Z,5.33
2023-01-19T03:39:33.210Z,5.32
2023-01-19T03:39:55.708Z,5.31
2023-01-19T03:40:17.482Z,5.31
2023-01-19T03:40:39.274Z,5.30
2023-01-19T03:41:02.278Z,5.30
2023-01-19T03:41:24.298Z,5.28
2023-01-19T03:41:46.771Z,5.28
2023-01-19T03:42:09.783Z,5.27
2023-01-19T03:42:31.462Z,5.26
2023-01-19T03:42:53.176Z,5.25
2023-01-19T03:43:16.060Z,5.24
2023-01-19T03:43:38.155Z,5.24
2023-01-19T03:44:00.339Z,5.23
2023-01-19T03:44:22.432Z,5.22
2023-01-19T03:44:44.746Z,5.22
2023-01-19T03:45:07.025Z,5.21
2023-01-19T03:45:31.054Z,5.20
2023-01-19T03:45:52.869Z,5.20
2023-01-19T03:46:17.608Z,5.19
2023-01-19T03:46:39.988Z,5.19
2023-01-19T03:47:01.776Z,5.20
2023-01-19T03:47:23.485Z,5.21
2023-01-19T03:47:45.350Z,5.21
2023-01-19T03:48:07.435Z,5.23
2023-01-19T03:48:29.219Z,5.23
2023-01-19T03:48:51.018Z,5.24
2023-01-19T03:49:12.786Z,5.26
2023-01-19T03:49:34.979Z,5.27
2023-01-19T03:49:56.771Z,5.28
2023-01-19T03:50:22.233Z,5.29
2023-01-19T03:50:44.014Z,5.29
2023-01-19T03:51:06.345Z,5.30
2023-01-19T03:51:28.099Z,5.30
2023-01-19T03:51:49.881Z,5.30
2023-01-19T03:52:13.020Z,5.30
2023-01-19T03:52:34.883Z,5.30
2023-01-19T03:53:13.046Z,5.29
2023-01-19T03:53:34.815Z,5.28
2023-01-19T03:53:56.598Z,5.27
2023-01-19T03:54:18.351Z,5.26
2023-01-19T03:54:41.191Z,5.25
2023-01-19T03:55:04.513Z,5.25
2023-01-19T03:55:26.400Z,5.23
2023-01-19T03:55:48.708Z,5.23
2023-01-19T03:56:14.905Z,5.22
2023-01-19T03:56:36.631Z,5.21
2023-01-19T03:56:58.449Z,5.21
2023-01-19T03:57:20.227Z,5.20
2023-01-19T03:57:42.010Z,5.19
2023-01-19T03:58:03.795Z,5.19
2023-01-19T03:58:25.585Z,5.20
2023-01-19T03:58:47.368Z,5.20
2023-01-19T03:59:09.149Z,5.21
2023-01-19T03:59:30.933Z,5.21
2023-01-19T03:59:53.555Z,5.22
2023-01-19T04:00:15.731Z,5.24
2023-01-19T04:00:37.717Z,5.25
2023-01-19T04:00:59.521Z,5.26
2023-01-19T04:01:23.233Z,5.27
2023-01-19T04:01:45.307Z,5.28
2023-01-19T04:02:07.227Z,5.29
2023-01-19T04:02:28.993Z,5.29
2023-01-19T04:02:50.767Z,5.30
2023-01-19T04:03:16.042Z,5.30
2023-01-19T04:03:37.824Z,5.29
2023-01-19T04:03:59.775Z,5.30
2023-01-19T04:04:21.601Z,5.29
2023-01-19T04:04:43.383Z,5.29
2023-01-19T04:05:05.473Z,5.29
2023-01-19T04:05:27.257Z,5.28
2023-01-19T04:05:49.554Z,5.27
2023-01-19T04:06:12.780Z,5.27
2023-01-19T04:06:34.552Z,5.26
2023-01-19T04:06:56.338Z,5.26
2023-01-19T04:07:18.122Z,5.25
2023-01-19T04:07:39.824Z,5.24
2023-01-19T04:08:01.589Z,5.24
2023-01-19T04:08:23.381Z,5.24
2023-01-19T04:08:45.261Z,5.23
2023-01-19T04:09:07.147Z,5.22
2023-01-19T04:09:28.862Z,5.22
2023-01-19T04:09:50.540Z,5.22
2023-01-19T04:10:13.015Z,5.23
2023-01-19T04:10:34.800Z,5.23
2023-01-19T04:10:57.604Z,5.24
2023-01-19T04:11:19.495Z,5.26
2023-01-19T04:11:41.273Z,5.27
2023-01-19T04:12:03.980Z,5.28
2023-01-19T04:12:25.767Z,5.30
2023-01-19T04:12:47.548Z,5.31
2023-01-19T04:13:09.333Z,5.32
2023-01-19T04:13:31.119Z,5.34
2023-01-19T04:13:52.818Z,5.35
2023-01-19T04:14:14.591Z,5.36
2023-01-19T04:14:36.477Z,5.36
2023-01-19T04:14:58.154Z,5.36
2023-01-19T04:15:20.557Z,5.36
2023-01-19T04:15:42.362Z,5.36
2023-01-19T04:16:04.555Z,5.36
2023-01-19T04:16:26.434Z,5.35
2023-01-19T04:16:48.205Z,5.35
2023-01-19T04:17:10.608Z,5.34
2023-01-19T04:17:32.485Z,5.33
2023-01-19T04:17:54.290Z,5.33
2023-01-19T04:18:16.055Z,5.32
2023-01-19T04:18:37.839Z,5.31
2023-01-19T04:18:59.625Z,5.31
2023-01-19T04:19:21.410Z,5.30
2023-01-19T04:19:43.810Z,5.30
2023-01-19T04:20:06.209Z,5.29
2023-01-19T04:20:28.343Z,5.29
2023-01-19T04:20:50.183Z,5.29
2023-01-19T04:21:11.970Z,5.29
2023-01-19T04:21:33.758Z,5.29
2023-01-19T04:21:55.761Z,5.30
2023-01-19T04:22:17.526Z,5.30
2023-01-19T04:22:39.826Z,5.32
2023-01-19T04:23:02.219Z,5.33
2023-01-19T04:23:24.321Z,5.35
2023-01-19T04:23:46.279Z,5.36
2023-01-19T04:24:09.312Z,5.37
2023-01-19T04:24:31.097Z,5.38
2023-01-19T04:24:52.798Z,5.39
2023-01-19T04:25:14.664Z,5.39
2023-01-19T04:25:38.059Z,5.40
2023-01-19T04:26:01.301Z,5.40
2023-01-19T04:26:23.303Z,5.39
2023-01-19T04:26:45.090Z,5.40
2023-01-19T04:27:06.859Z,5.39
2023-01-19T04:27:29.157Z,5.39
2023-01-19T04:27:53.947Z,5.39
2023-01-19T04:28:15.812Z,5.38
2023-01-19T04:28:37.678Z,5.37
2023-01-19T04:28:59.383Z,5.36
2023-01-19T04:29:21.100Z,5.36
2023-01-19T04:29:42.928Z,5.35
2023-01-19T04:30:05.025Z,5.35
2023-01-19T04:30:27.624Z,5.34
2023-01-19T04:30:52.521Z,5.33
2023-01-19T04:31:14.532Z,5.32
2023-01-19T04:31:37.211Z,5.31
2023-01-19T04:31:59.340Z,5.32
2023-01-19T04:32:21.044Z,5.33
2023-01-19T04:32:42.842Z,5.33
2023-01-19T04:33:04.752Z,5.34
2023-01-19T04:33:27.341Z,5.35
2023-01-19T04:33:49.534Z,5.36
2023-01-19T04:34:11.302Z,5.37
2023-01-19T04:34:33.092Z,5.39
2023-01-19T04:34:54.871Z,5.40
2023-01-19T04:35:17.199Z,5.41
2023-01-19T04:35:38.889Z,5.42
2023-01-19T04:36:00.590Z,5.42
2023-01-19T04:36:22.275Z,5.42
2023-01-19T04:36:45.525Z,5.43
2023-01-19T04:37:08.744Z,5.43
2023-01-19T04:37:30.530Z,5.43
2023-01-19T04:37:52.322Z,5.42
2023-01-19T04:38:14.101Z,5.42
2023-01-19T04:38:35.817Z,5.42
2023-01-19T04:38:57.566Z,5.41
2023-01-19T04:39:19.452Z,5.40
2023-01-19T04:39:41.248Z,5.40
2023-01-19T04:40:03.223Z,5.40
2023-01-19T04:40:25.213Z,5.39
2023-01-19T04:40:47.308Z,5.39
2023-01-19T04:41:09.091Z,5.39
2023-01-19T04:41:31.221Z,5.38
2023-01-19T04:41:53.272Z,5.38
2023-01-19T04:42:15.380Z,5.37
2023-01-19T04:42:37.146Z,5.37
2023-01-19T04:42:59.181Z,5.36
2023-01-19T04:43:21.251Z,5.37
2023-01-19T04:43:43.030Z,5.37
2023-01-19T04:44:05.106Z,5.38
2023-01-19T04:44:27.502Z,5.39
2023-01-19T04:44:49.287Z,5.41
2023-01-19T04:45:11.803Z,5.42
2023-01-19T04:45:33.564Z,5.43
2023-01-19T04:45:55.356Z,5.44
2023-01-19T04:46:17.181Z,5.45
2023-01-19T04:46:39.044Z,5.46
2023-01-19T04:47:01.834Z,5.47
2023-01-19T04:47:23.539Z,5.48
2023-01-19T04:47:45.303Z,5.48
2023-01-19T04:48:07.085Z,5.47
2023-01-19T04:48:28.992Z,5.47
2023-01-19T04:48:50.965Z,5.47
2023-01-19T04:49:12.747Z,5.47
2023-01-19T04:49:37.742Z,5.45
2023-01-19T04:49:59.485Z,5.44
2023-01-19T04:50:21.268Z,5.43
2023-01-19T04:50:42.997Z,5.43
2023-01-19T04:51:04.941Z,5.42
2023-01-19T04:51:26.730Z,5.42
2023-01-19T04:51:48.510Z,5.41
2023-01-19T04:52:10.228Z,5.40
2023-01-19T04:52:35.209Z,5.40
2023-01-19T04:52:57.036Z,5.39
2023-01-19T04:53:18.820Z,5.38
2023-01-19T04:53:40.602Z,5.37
2023-01-19T04:54:02.732Z,5.38
2023-01-19T04:54:24.826Z,5.36
2023-01-19T04:54:46.674Z,5.36
2023-01-19T04:55:08.896Z,5.37
2023-01-19T04:55:30.752Z,5.37
2023-01-19T04:55:53.685Z,5.38
2023-01-19T04:56:15.551Z,5.39
2023-01-19T04:56:37.338Z,5.40
2023-01-19T04:56:59.117Z,5.41
2023-01-19T04:57:20.902Z,5.42
2023-01-19T04:57:42.689Z,5.43
2023-01-19T04:58:04.447Z,5.44
2023-01-19T04:58:26.254Z,5.44
2023-01-19T04:58:48.040Z,5.45
2023-01-19T04:59:09.825Z,5.45
2023-01-19T04:59:31.696Z,5.45
2023-01-19T04:59:53.496Z,5.45
2023-01-19T05:00:15.588Z,5.44
2023-01-19T05:00:37.315Z,5.44
2023-01-19T05:00:59.017Z,5.43
2023-01-19T05:01:20.776Z,5.42
2023-01-19T05:01:42.610Z,5.41
2023-01-19T05:02:04.463Z,5.40
2023-01-19T05:02:26.496Z,5.40
2023-01-19T05:02:48.432Z,5.39
2023-01-19T05:03:10.222Z,5.38
2023-01-19T05:03:32.260Z,5.37
2023-01-19T05:03:54.042Z,5.35
2023-01-19T05:04:15.802Z,5.34
2023-01-19T05:04:37.618Z,5.34
2023-01-19T05:04:59.610Z,5.33
2023-01-19T05:05:21.591Z,5.31
2023-01-19T05:05:43.784Z,5.31
2023-01-19T05:06:06.397Z,5.31
2023-01-19T05:06:28.183Z,5.30
2023-01-19T05:06:50.162Z,5.31
2023-01-19T05:07:11.837Z,5.32
2023-01-19T05:07:33.608Z,5.34
2023-01-19T05:07:55.721Z,5.34
2023-01-19T05:08:17.606Z,5.36
2023-01-19T05:08:39.390Z,5.37
2023-01-19T05:09:01.175Z,5.38
2023-01-19T05:09:22.958Z,5.39
2023-01-19T05:09:44.743Z,5.40
2023-01-19T05:10:06.937Z,5.40
2023-01-19T05:10:28.726Z,5.41
2023-01-19T05:10:50.511Z,5.40
2023-01-19T05:11:12.181Z,5.40
2023-01-19T05:11:33.972Z,5.39
2023-01-19T05:11:55.667Z,5.38
2023-01-19T05:12:17.848Z,5.37
2023-01-19T05:12:39.735Z,5.37
2023-01-19T05:13:01.739Z,5.36
2023-01-19T05:13:23.754Z,5.36
2023-01-19T05:13:45.498Z,5.34
2023-01-19T05:14:07.590Z,5.34
2023-01-19T05:14:29.289Z,5.32
2023-01-19T05:14:51.057Z,5.31
2023-01-19T05:15:12.739Z,5.30
2023-01-19T05:15:34.540Z,5.29